sensor_id;sensor_type;location;lat;lon;timestamp;P1;durP1;ratioP1;P2;durP2;ratioP2
21999;SDS011;11164;48.818;2.322;2022-12-31T00:00:30;6.82;;;1.20;;
21999;SDS011;11164;48.818;2.322;2022-12-31T00:02:57;5.65;;;1.50;;
21999;SDS011;11164;48.818;2.322;2022-12-31T00:05:22;6.78;;;1.48;;
21999;SDS011;11164;48.818;2.322;2022-12-31T00:07:48;9.18;;;1.63;;
21999;SDS011;11164;48.818;2.322;2022-12-31T00:10:13;11.63;;;1.80;;
21999;SDS011;11164;48.818;2.322;2022-12-31T00:12:38;5.75;;;1.38;;
21999;SDS011;11164;48.818;2.322;2022-12-31T00:15:04;9.27;;;1.67;;
21999;SDS011;11164;48.818;2.322;2022-12-31T00:17:29;6.65;;;1.90;;
21999;SDS011;11164;48.818;2.322;2022-12-31T00:19:55;8.30;;;1.80;;
21999;SDS011;11164;48.818;2.322;2022-12-31T00:22:20;8.32;;;1.52;;
21999;SDS011;11164;48.818;2.322;2022-12-31T00:28:07;6.78;;;1.40;;
21999;SDS011;11164;48.818;2.322;2022-12-31T00:30:32;9.05;;;1.50;;
21999;SDS011;11164;48.818;2.322;2022-12-31T00:32:58;5.80;;;1.30;;
21999;SDS011;11164;48.818;2.322;2022-12-31T00:35:23;5.60;;;1.23;;
21999;SDS011;11164;48.818;2.322;2022-12-31T00:37:50;6.65;;;1.20;;
21999;SDS011;11164;48.818;2.322;2022-12-31T00:40:16;6.22;;;1.13;;
21999;SDS011;11164;48.818;2.322;2022-12-31T00:42:41;8.20;;;1.45;;
21999;SDS011;11164;48.818;2.322;2022-12-31T00:45:07;6.18;;;1.23;;
21999;SDS011;11164;48.818;2.322;2022-12-31T00:47:32;8.07;;;1.38;;
21999;SDS011;11164;48.818;2.322;2022-12-31T00:49:58;7.47;;;1.58;;
21999;SDS011;11164;48.818;2.322;2022-12-31T00:52:23;5.25;;;1.25;;
21999;SDS011;11164;48.818;2.322;2022-12-31T00:54:48;5.03;;;1.00;;
21999;SDS011;11164;48.818;2.322;2022-12-31T00:57:14;5.85;;;1.40;;
21999;SDS011;11164;48.818;2.322;2022-12-31T00:59:39;8.45;;;1.48;;
21999;SDS011;11164;48.818;2.322;2022-12-31T01:02:04;6.70;;;1.08;;
21999;SDS011;11164;48.818;2.322;2022-12-31T01:04:30;4.95;;;1.00;;
21999;SDS011;11164;48.818;2.322;2022-12-31T01:06:55;4.95;;;1.10;;
21999;SDS011;11164;48.818;2.322;2022-12-31T01:09:21;6.60;;;1.30;;
21999;SDS011;11164;48.818;2.322;2022-12-31T01:11:48;5.85;;;1.13;;
21999;SDS011;11164;48.818;2.322;2022-12-31T01:14:16;7.53;;;1.20;;
21999;SDS011;11164;48.818;2.322;2022-12-31T01:19:10;4.53;;;1.02;;
21999;SDS011;11164;48.818;2.322;2022-12-31T01:21:38;4.75;;;0.90;;
21999;SDS011;11164;48.818;2.322;2022-12-31T01:24:04;5.05;;;1.10;;
21999;SDS011;11164;48.818;2.322;2022-12-31T01:26:30;8.38;;;1.40;;
21999;SDS011;11164;48.818;2.322;2022-12-31T01:28:56;6.07;;;1.15;;
21999;SDS011;11164;48.818;2.322;2022-12-31T01:31:22;3.28;;;1.00;;
21999;SDS011;11164;48.818;2.322;2022-12-31T01:33:48;7.05;;;1.25;;
21999;SDS011;11164;48.818;2.322;2022-12-31T01:36:20;7.60;;;1.20;;
21999;SDS011;11164;48.818;2.322;2022-12-31T01:38:48;7.00;;;1.33;;
21999;SDS011;11164;48.818;2.322;2022-12-31T01:41:14;8.05;;;1.17;;
21999;SDS011;11164;48.818;2.322;2022-12-31T01:46:34;6.45;;;1.20;;
21999;SDS011;11164;48.818;2.322;2022-12-31T01:51:41;5.65;;;0.95;;
21999;SDS011;11164;48.818;2.322;2022-12-31T01:54:08;5.57;;;1.10;;
21999;SDS011;11164;48.818;2.322;2022-12-31T01:56:37;8.30;;;1.33;;
21999;SDS011;11164;48.818;2.322;2022-12-31T01:59:06;5.40;;;1.10;;
21999;SDS011;11164;48.818;2.322;2022-12-31T02:01:34;5.05;;;1.08;;
21999;SDS011;11164;48.818;2.322;2022-12-31T02:04:03;5.30;;;1.10;;
21999;SDS011;11164;48.818;2.322;2022-12-31T02:06:38;5.82;;;1.30;;
21999;SDS011;11164;48.818;2.322;2022-12-31T02:09:07;7.88;;;1.20;;
21999;SDS011;11164;48.818;2.322;2022-12-31T02:11:33;6.15;;;1.05;;
21999;SDS011;11164;48.818;2.322;2022-12-31T02:14:03;9.68;;;1.30;;
21999;SDS011;11164;48.818;2.322;2022-12-31T02:22:20;5.55;;;1.08;;
21999;SDS011;11164;48.818;2.322;2022-12-31T02:24:56;4.35;;;0.90;;
21999;SDS011;11164;48.818;2.322;2022-12-31T02:35:23;4.60;;;1.00;;
21999;SDS011;11164;48.818;2.322;2022-12-31T02:38:10;6.30;;;1.05;;
21999;SDS011;11164;48.818;2.322;2022-12-31T02:40:42;4.72;;;1.10;;
21999;SDS011;11164;48.818;2.322;2022-12-31T02:43:08;6.03;;;1.13;;
21999;SDS011;11164;48.818;2.322;2022-12-31T02:45:37;7.18;;;1.30;;
21999;SDS011;11164;48.818;2.322;2022-12-31T02:58:47;9.20;;;1.23;;
21999;SDS011;11164;48.818;2.322;2022-12-31T03:01:42;6.57;;;1.15;;
21999;SDS011;11164;48.818;2.322;2022-12-31T03:04:30;7.05;;;1.33;;
21999;SDS011;11164;48.818;2.322;2022-12-31T03:07:04;4.50;;;1.08;;
21999;SDS011;11164;48.818;2.322;2022-12-31T03:09:32;10.02;;;1.52;;
21999;SDS011;11164;48.818;2.322;2022-12-31T03:11:59;4.53;;;1.00;;
21999;SDS011;11164;48.818;2.322;2022-12-31T03:14:44;3.47;;;1.20;;
21999;SDS011;11164;48.818;2.322;2022-12-31T03:17:09;5.78;;;1.10;;
21999;SDS011;11164;48.818;2.322;2022-12-31T03:19:34;4.30;;;1.00;;
21999;SDS011;11164;48.818;2.322;2022-12-31T03:22:18;6.47;;;1.40;;
21999;SDS011;11164;48.818;2.322;2022-12-31T03:24:57;4.57;;;1.30;;
21999;SDS011;11164;48.818;2.322;2022-12-31T03:27:43;5.88;;;1.33;;
21999;SDS011;11164;48.818;2.322;2022-12-31T03:30:10;5.63;;;1.35;;
21999;SDS011;11164;48.818;2.322;2022-12-31T03:32:36;4.50;;;1.00;;
21999;SDS011;11164;48.818;2.322;2022-12-31T03:35:01;5.13;;;1.40;;
21999;SDS011;11164;48.818;2.322;2022-12-31T03:37:27;4.72;;;1.00;;
21999;SDS011;11164;48.818;2.322;2022-12-31T03:39:52;4.60;;;1.02;;
21999;SDS011;11164;48.818;2.322;2022-12-31T03:42:18;5.60;;;0.98;;
21999;SDS011;11164;48.818;2.322;2022-12-31T03:44:43;4.07;;;0.95;;
21999;SDS011;11164;48.818;2.322;2022-12-31T03:47:08;4.03;;;1.00;;
21999;SDS011;11164;48.818;2.322;2022-12-31T03:49:33;4.68;;;1.00;;
21999;SDS011;11164;48.818;2.322;2022-12-31T03:51:59;6.22;;;1.17;;
21999;SDS011;11164;48.818;2.322;2022-12-31T03:54:26;5.93;;;1.48;;
21999;SDS011;11164;48.818;2.322;2022-12-31T03:56:52;4.25;;;1.17;;
21999;SDS011;11164;48.818;2.322;2022-12-31T03:59:17;6.40;;;1.40;;
21999;SDS011;11164;48.818;2.322;2022-12-31T04:01:43;8.30;;;1.45;;
21999;SDS011;11164;48.818;2.322;2022-12-31T04:04:08;5.53;;;1.30;;
21999;SDS011;11164;48.818;2.322;2022-12-31T04:06:33;6.95;;;1.45;;
21999;SDS011;11164;48.818;2.322;2022-12-31T04:08:59;5.80;;;1.70;;
21999;SDS011;11164;48.818;2.322;2022-12-31T04:11:24;5.70;;;1.35;;
21999;SDS011;11164;48.818;2.322;2022-12-31T04:13:49;9.07;;;1.40;;
21999;SDS011;11164;48.818;2.322;2022-12-31T04:16:14;5.45;;;1.40;;
21999;SDS011;11164;48.818;2.322;2022-12-31T04:18:40;8.50;;;1.70;;
21999;SDS011;11164;48.818;2.322;2022-12-31T04:21:05;5.70;;;1.63;;
21999;SDS011;11164;48.818;2.322;2022-12-31T04:23:30;9.27;;;2.00;;
21999;SDS011;11164;48.818;2.322;2022-12-31T04:25:56;6.20;;;1.35;;
21999;SDS011;11164;48.818;2.322;2022-12-31T04:28:21;7.53;;;1.52;;
21999;SDS011;11164;48.818;2.322;2022-12-31T04:30:46;9.82;;;1.40;;
21999;SDS011;11164;48.818;2.322;2022-12-31T04:33:12;9.48;;;1.55;;
21999;SDS011;11164;48.818;2.322;2022-12-31T04:35:37;5.60;;;1.42;;
21999;SDS011;11164;48.818;2.322;2022-12-31T04:38:02;6.88;;;1.42;;
21999;SDS011;11164;48.818;2.322;2022-12-31T04:40:28;5.57;;;1.40;;
21999;SDS011;11164;48.818;2.322;2022-12-31T04:42:53;6.57;;;1.27;;
21999;SDS011;11164;48.818;2.322;2022-12-31T04:45:19;7.80;;;1.42;;
21999;SDS011;11164;48.818;2.322;2022-12-31T04:47:44;6.13;;;1.60;;
21999;SDS011;11164;48.818;2.322;2022-12-31T04:50:09;8.18;;;1.48;;
21999;SDS011;11164;48.818;2.322;2022-12-31T04:52:35;8.10;;;1.52;;
21999;SDS011;11164;48.818;2.322;2022-12-31T04:55:00;7.80;;;1.75;;
21999;SDS011;11164;48.818;2.322;2022-12-31T04:57:25;6.00;;;1.30;;
21999;SDS011;11164;48.818;2.322;2022-12-31T04:59:50;9.13;;;1.65;;
21999;SDS011;11164;48.818;2.322;2022-12-31T05:02:16;9.70;;;1.88;;
21999;SDS011;11164;48.818;2.322;2022-12-31T05:04:41;9.63;;;1.85;;
21999;SDS011;11164;48.818;2.322;2022-12-31T05:07:06;8.88;;;1.50;;
21999;SDS011;11164;48.818;2.322;2022-12-31T05:09:32;8.73;;;1.77;;
21999;SDS011;11164;48.818;2.322;2022-12-31T05:11:57;10.50;;;1.77;;
21999;SDS011;11164;48.818;2.322;2022-12-31T05:14:23;6.18;;;1.48;;
21999;SDS011;11164;48.818;2.322;2022-12-31T05:16:48;7.88;;;1.90;;
21999;SDS011;11164;48.818;2.322;2022-12-31T05:19:14;7.22;;;1.70;;
21999;SDS011;11164;48.818;2.322;2022-12-31T05:21:39;7.72;;;1.92;;
21999;SDS011;11164;48.818;2.322;2022-12-31T05:24:05;6.75;;;1.70;;
21999;SDS011;11164;48.818;2.322;2022-12-31T05:26:30;7.90;;;2.38;;
21999;SDS011;11164;48.818;2.322;2022-12-31T05:28:56;10.27;;;1.83;;
21999;SDS011;11164;48.818;2.322;2022-12-31T05:31:24;9.77;;;1.90;;
21999;SDS011;11164;48.818;2.322;2022-12-31T05:33:49;9.27;;;1.67;;
21999;SDS011;11164;48.818;2.322;2022-12-31T05:36:15;6.18;;;1.60;;
21999;SDS011;11164;48.818;2.322;2022-12-31T05:38:40;6.85;;;1.90;;
21999;SDS011;11164;48.818;2.322;2022-12-31T05:41:06;8.68;;;1.50;;
21999;SDS011;11164;48.818;2.322;2022-12-31T05:43:32;7.75;;;1.50;;
21999;SDS011;11164;48.818;2.322;2022-12-31T05:46:01;11.18;;;2.20;;
21999;SDS011;11164;48.818;2.322;2022-12-31T05:48:27;6.85;;;1.80;;
21999;SDS011;11164;48.818;2.322;2022-12-31T05:50:53;8.02;;;1.98;;
21999;SDS011;11164;48.818;2.322;2022-12-31T05:53:18;5.50;;;1.50;;
21999;SDS011;11164;48.818;2.322;2022-12-31T05:55:44;8.27;;;1.52;;
21999;SDS011;11164;48.818;2.322;2022-12-31T05:58:11;7.13;;;1.67;;
21999;SDS011;11164;48.818;2.322;2022-12-31T06:00:37;7.55;;;1.40;;
21999;SDS011;11164;48.818;2.322;2022-12-31T06:03:04;10.45;;;1.98;;
21999;SDS011;11164;48.818;2.322;2022-12-31T06:05:29;7.68;;;1.67;;
21999;SDS011;11164;48.818;2.322;2022-12-31T06:07:54;6.18;;;1.75;;
21999;SDS011;11164;48.818;2.322;2022-12-31T06:10:20;6.72;;;2.15;;
21999;SDS011;11164;48.818;2.322;2022-12-31T06:12:45;6.20;;;1.90;;
21999;SDS011;11164;48.818;2.322;2022-12-31T06:15:10;9.00;;;1.90;;
21999;SDS011;11164;48.818;2.322;2022-12-31T06:17:35;10.30;;;2.13;;
21999;SDS011;11164;48.818;2.322;2022-12-31T06:20:01;6.60;;;1.70;;
21999;SDS011;11164;48.818;2.322;2022-12-31T06:22:26;7.97;;;1.98;;
21999;SDS011;11164;48.818;2.322;2022-12-31T06:24:51;9.40;;;2.58;;
21999;SDS011;11164;48.818;2.322;2022-12-31T06:27:17;7.60;;;1.80;;
21999;SDS011;11164;48.818;2.322;2022-12-31T06:29:42;9.02;;;2.20;;
21999;SDS011;11164;48.818;2.322;2022-12-31T06:32:09;7.40;;;1.65;;
21999;SDS011;11164;48.818;2.322;2022-12-31T06:34:35;9.73;;;1.92;;
21999;SDS011;11164;48.818;2.322;2022-12-31T06:37:00;8.98;;;2.10;;
21999;SDS011;11164;48.818;2.322;2022-12-31T06:39:25;4.78;;;1.58;;
21999;SDS011;11164;48.818;2.322;2022-12-31T06:41:51;8.77;;;1.85;;
21999;SDS011;11164;48.818;2.322;2022-12-31T06:44:16;8.98;;;1.80;;
21999;SDS011;11164;48.818;2.322;2022-12-31T06:46:41;7.47;;;2.00;;
21999;SDS011;11164;48.818;2.322;2022-12-31T06:49:07;9.60;;;2.20;;
21999;SDS011;11164;48.818;2.322;2022-12-31T06:51:32;8.98;;;1.80;;
21999;SDS011;11164;48.818;2.322;2022-12-31T06:53:57;10.43;;;1.80;;
21999;SDS011;11164;48.818;2.322;2022-12-31T06:56:26;6.88;;;1.67;;
21999;SDS011;11164;48.818;2.322;2022-12-31T06:58:53;9.15;;;1.92;;
21999;SDS011;11164;48.818;2.322;2022-12-31T07:03:47;7.20;;;1.70;;
21999;SDS011;11164;48.818;2.322;2022-12-31T07:06:16;8.25;;;1.83;;
21999;SDS011;11164;48.818;2.322;2022-12-31T07:11:41;7.68;;;1.60;;
21999;SDS011;11164;48.818;2.322;2022-12-31T07:14:22;8.75;;;1.85;;
21999;SDS011;11164;48.818;2.322;2022-12-31T07:20:00;6.78;;;2.00;;
21999;SDS011;11164;48.818;2.322;2022-12-31T07:22:35;6.57;;;1.70;;
21999;SDS011;11164;48.818;2.322;2022-12-31T07:25:01;7.53;;;1.92;;
21999;SDS011;11164;48.818;2.322;2022-12-31T07:30:12;10.10;;;2.08;;
21999;SDS011;11164;48.818;2.322;2022-12-31T07:36:24;8.88;;;1.63;;
21999;SDS011;11164;48.818;2.322;2022-12-31T07:41:01;11.07;;;1.90;;
21999;SDS011;11164;48.818;2.322;2022-12-31T07:43:31;9.40;;;1.83;;
21999;SDS011;11164;48.818;2.322;2022-12-31T07:48:38;7.35;;;1.88;;
21999;SDS011;11164;48.818;2.322;2022-12-31T07:51:03;7.63;;;2.80;;
21999;SDS011;11164;48.818;2.322;2022-12-31T07:53:29;10.05;;;1.90;;
21999;SDS011;11164;48.818;2.322;2022-12-31T07:55:56;8.95;;;2.05;;
21999;SDS011;11164;48.818;2.322;2022-12-31T08:01:05;8.93;;;2.08;;
21999;SDS011;11164;48.818;2.322;2022-12-31T08:09:07;9.07;;;2.05;;
21999;SDS011;11164;48.818;2.322;2022-12-31T08:11:48;9.27;;;2.25;;
21999;SDS011;11164;48.818;2.322;2022-12-31T08:14:20;10.77;;;2.20;;
21999;SDS011;11164;48.818;2.322;2022-12-31T08:16:46;7.78;;;2.13;;
21999;SDS011;11164;48.818;2.322;2022-12-31T08:19:28;7.50;;;2.08;;
21999;SDS011;11164;48.818;2.322;2022-12-31T08:27:25;4.90;;;2.15;;
21999;SDS011;11164;48.818;2.322;2022-12-31T08:45:58;7.80;;;2.35;;
21999;SDS011;11164;48.818;2.322;2022-12-31T08:48:27;7.53;;;2.15;;
21999;SDS011;11164;48.818;2.322;2022-12-31T08:51:00;6.90;;;2.00;;
21999;SDS011;11164;48.818;2.322;2022-12-31T08:53:26;7.30;;;2.70;;
21999;SDS011;11164;48.818;2.322;2022-12-31T08:55:53;8.93;;;2.10;;
21999;SDS011;11164;48.818;2.322;2022-12-31T09:01:04;6.85;;;2.20;;
21999;SDS011;11164;48.818;2.322;2022-12-31T09:06:20;6.82;;;2.67;;
21999;SDS011;11164;48.818;2.322;2022-12-31T09:08:59;7.00;;;2.30;;
21999;SDS011;11164;48.818;2.322;2022-12-31T09:19:44;7.43;;;2.15;;
21999;SDS011;11164;48.818;2.322;2022-12-31T09:22:09;8.40;;;2.33;;
21999;SDS011;11164;48.818;2.322;2022-12-31T09:24:35;6.38;;;2.08;;
21999;SDS011;11164;48.818;2.322;2022-12-31T09:27:05;6.38;;;1.70;;
21999;SDS011;11164;48.818;2.322;2022-12-31T09:29:43;6.47;;;2.13;;
21999;SDS011;11164;48.818;2.322;2022-12-31T09:32:49;7.00;;;2.05;;
21999;SDS011;11164;48.818;2.322;2022-12-31T09:35:35;10.02;;;2.30;;
21999;SDS011;11164;48.818;2.322;2022-12-31T09:38:12;7.80;;;2.00;;
21999;SDS011;11164;48.818;2.322;2022-12-31T09:46:11;5.70;;;2.10;;
21999;SDS011;11164;48.818;2.322;2022-12-31T09:48:44;6.32;;;2.42;;
21999;SDS011;11164;48.818;2.322;2022-12-31T09:51:30;6.13;;;1.67;;
21999;SDS011;11164;48.818;2.322;2022-12-31T09:54:18;9.25;;;2.35;;
21999;SDS011;11164;48.818;2.322;2022-12-31T09:59:57;8.50;;;2.28;;
21999;SDS011;11164;48.818;2.322;2022-12-31T10:11:12;12.80;;;2.78;;
21999;SDS011;11164;48.818;2.322;2022-12-31T10:16:42;7.20;;;2.17;;
21999;SDS011;11164;48.818;2.322;2022-12-31T10:19:32;9.32;;;2.10;;
21999;SDS011;11164;48.818;2.322;2022-12-31T10:28:05;6.93;;;1.85;;
21999;SDS011;11164;48.818;2.322;2022-12-31T10:35:49;6.22;;;2.42;;
21999;SDS011;11164;48.818;2.322;2022-12-31T10:38:34;7.07;;;1.98;;
21999;SDS011;11164;48.818;2.322;2022-12-31T10:41:26;8.20;;;2.25;;
21999;SDS011;11164;48.818;2.322;2022-12-31T10:49:51;7.22;;;2.15;;
21999;SDS011;11164;48.818;2.322;2022-12-31T11:06:30;8.57;;;2.42;;
21999;SDS011;11164;48.818;2.322;2022-12-31T11:19:29;7.77;;;2.10;;
21999;SDS011;11164;48.818;2.322;2022-12-31T11:22:11;5.05;;;1.92;;
21999;SDS011;11164;48.818;2.322;2022-12-31T11:33:09;6.82;;;1.95;;
21999;SDS011;11164;48.818;2.322;2022-12-31T11:41:53;8.65;;;2.10;;
21999;SDS011;11164;48.818;2.322;2022-12-31T11:55:21;8.98;;;2.35;;
21999;SDS011;11164;48.818;2.322;2022-12-31T11:57:54;7.93;;;2.17;;
21999;SDS011;11164;48.818;2.322;2022-12-31T12:00:24;6.85;;;1.90;;
21999;SDS011;11164;48.818;2.322;2022-12-31T12:03:23;6.80;;;1.92;;
21999;SDS011;11164;48.818;2.322;2022-12-31T12:05:41;9.20;;;2.22;;
21999;SDS011;11164;48.818;2.322;2022-12-31T12:08:07;7.47;;;2.00;;
21999;SDS011;11164;48.818;2.322;2022-12-31T12:10:35;5.93;;;2.15;;
21999;SDS011;11164;48.818;2.322;2022-12-31T12:13:16;7.35;;;2.08;;
21999;SDS011;11164;48.818;2.322;2022-12-31T12:15:47;6.03;;;1.77;;
21999;SDS011;11164;48.818;2.322;2022-12-31T12:19:04;6.05;;;2.05;;
21999;SDS011;11164;48.818;2.322;2022-12-31T12:21:13;6.90;;;1.88;;
21999;SDS011;11164;48.818;2.322;2022-12-31T12:23:52;7.15;;;2.10;;
21999;SDS011;11164;48.818;2.322;2022-12-31T12:26:27;8.05;;;2.17;;
21999;SDS011;11164;48.818;2.322;2022-12-31T12:28:52;7.03;;;1.80;;
21999;SDS011;11164;48.818;2.322;2022-12-31T12:31:19;4.00;;;2.10;;
21999;SDS011;11164;48.818;2.322;2022-12-31T12:33:47;5.82;;;2.17;;
21999;SDS011;11164;48.818;2.322;2022-12-31T12:36:15;9.30;;;2.42;;
21999;SDS011;11164;48.818;2.322;2022-12-31T12:38:42;6.00;;;1.80;;
21999;SDS011;11164;48.818;2.322;2022-12-31T12:41:19;5.93;;;1.83;;
21999;SDS011;11164;48.818;2.322;2022-12-31T12:43:47;6.63;;;1.98;;
21999;SDS011;11164;48.818;2.322;2022-12-31T12:46:20;5.25;;;1.80;;
21999;SDS011;11164;48.818;2.322;2022-12-31T12:48:54;6.05;;;2.20;;
21999;SDS011;11164;48.818;2.322;2022-12-31T12:51:36;8.20;;;2.00;;
21999;SDS011;11164;48.818;2.322;2022-12-31T13:10:40;6.43;;;1.98;;
21999;SDS011;11164;48.818;2.322;2022-12-31T13:13:43;5.90;;;2.00;;
21999;SDS011;11164;48.818;2.322;2022-12-31T13:19:28;4.63;;;1.88;;
21999;SDS011;11164;48.818;2.322;2022-12-31T13:27:27;6.43;;;2.65;;
21999;SDS011;11164;48.818;2.322;2022-12-31T13:29:54;8.13;;;2.30;;
21999;SDS011;11164;48.818;2.322;2022-12-31T13:35:26;7.60;;;2.28;;
21999;SDS011;11164;48.818;2.322;2022-12-31T13:40:37;7.65;;;2.10;;
21999;SDS011;11164;48.818;2.322;2022-12-31T13:43:53;7.70;;;2.33;;
21999;SDS011;11164;48.818;2.322;2022-12-31T13:49:02;8.82;;;2.55;;
21999;SDS011;11164;48.818;2.322;2022-12-31T13:51:42;9.45;;;2.53;;
21999;SDS011;11164;48.818;2.322;2022-12-31T13:59:53;7.15;;;2.22;;
21999;SDS011;11164;48.818;2.322;2022-12-31T14:02:30;6.30;;;2.15;;
21999;SDS011;11164;48.818;2.322;2022-12-31T14:05:03;8.63;;;2.35;;
21999;SDS011;11164;48.818;2.322;2022-12-31T14:07:52;9.02;;;2.25;;
21999;SDS011;11164;48.818;2.322;2022-12-31T14:15:55;6.72;;;2.17;;
21999;SDS011;11164;48.818;2.322;2022-12-31T14:21:10;9.93;;;2.45;;
21999;SDS011;11164;48.818;2.322;2022-12-31T14:23:57;5.50;;;1.98;;
21999;SDS011;11164;48.818;2.322;2022-12-31T14:26:34;6.63;;;1.80;;
21999;SDS011;11164;48.818;2.322;2022-12-31T14:29:13;6.40;;;2.10;;
21999;SDS011;11164;48.818;2.322;2022-12-31T14:42:45;6.80;;;2.10;;
21999;SDS011;11164;48.818;2.322;2022-12-31T14:45:33;4.78;;;2.10;;
21999;SDS011;11164;48.818;2.322;2022-12-31T14:51:12;8.48;;;2.30;;
21999;SDS011;11164;48.818;2.322;2022-12-31T14:53:38;10.07;;;2.35;;
21999;SDS011;11164;48.818;2.322;2022-12-31T14:56:26;7.50;;;2.00;;
21999;SDS011;11164;48.818;2.322;2022-12-31T14:58:55;8.68;;;2.53;;
21999;SDS011;11164;48.818;2.322;2022-12-31T15:01:21;7.22;;;2.17;;
21999;SDS011;11164;48.818;2.322;2022-12-31T15:03:50;7.22;;;2.22;;
21999;SDS011;11164;48.818;2.322;2022-12-31T15:14:34;8.37;;;2.17;;
21999;SDS011;11164;48.818;2.322;2022-12-31T15:25:18;7.63;;;2.17;;
21999;SDS011;11164;48.818;2.322;2022-12-31T15:27:46;6.50;;;2.22;;
21999;SDS011;11164;48.818;2.322;2022-12-31T15:32:50;4.25;;;1.80;;
21999;SDS011;11164;48.818;2.322;2022-12-31T15:40:28;8.07;;;2.38;;
21999;SDS011;11164;48.818;2.322;2022-12-31T15:42:56;5.82;;;2.25;;
21999;SDS011;11164;48.818;2.322;2022-12-31T15:45:30;6.25;;;2.35;;
21999;SDS011;11164;48.818;2.322;2022-12-31T15:47:57;5.82;;;2.17;;
21999;SDS011;11164;48.818;2.322;2022-12-31T15:50:26;8.43;;;2.35;;
21999;SDS011;11164;48.818;2.322;2022-12-31T15:52:54;8.20;;;2.08;;
21999;SDS011;11164;48.818;2.322;2022-12-31T15:57:47;11.00;;;2.60;;
21999;SDS011;11164;48.818;2.322;2022-12-31T16:00:15;5.45;;;2.00;;
21999;SDS011;11164;48.818;2.322;2022-12-31T16:02:42;6.38;;;1.92;;
21999;SDS011;11164;48.818;2.322;2022-12-31T16:05:27;6.88;;;2.10;;
21999;SDS011;11164;48.818;2.322;2022-12-31T16:07:53;5.47;;;2.00;;
21999;SDS011;11164;48.818;2.322;2022-12-31T16:10:22;5.82;;;2.55;;
21999;SDS011;11164;48.818;2.322;2022-12-31T16:12:51;5.13;;;2.13;;
21999;SDS011;11164;48.818;2.322;2022-12-31T16:15:22;5.68;;;1.85;;
21999;SDS011;11164;48.818;2.322;2022-12-31T16:18:02;5.50;;;2.08;;
21999;SDS011;11164;48.818;2.322;2022-12-31T16:20:43;4.60;;;1.98;;
21999;SDS011;11164;48.818;2.322;2022-12-31T16:23:22;4.93;;;1.90;;
21999;SDS011;11164;48.818;2.322;2022-12-31T16:25:50;7.45;;;2.13;;
21999;SDS011;11164;48.818;2.322;2022-12-31T16:28:18;5.93;;;1.95;;
21999;SDS011;11164;48.818;2.322;2022-12-31T16:30:53;4.40;;;2.10;;
21999;SDS011;11164;48.818;2.322;2022-12-31T16:33:26;6.85;;;1.75;;
21999;SDS011;11164;48.818;2.322;2022-12-31T16:35:53;5.20;;;2.10;;
21999;SDS011;11164;48.818;2.322;2022-12-31T16:38:20;4.93;;;1.88;;
21999;SDS011;11164;48.818;2.322;2022-12-31T16:43:27;6.38;;;2.50;;
21999;SDS011;11164;48.818;2.322;2022-12-31T16:48:47;4.00;;;1.88;;
21999;SDS011;11164;48.818;2.322;2022-12-31T16:51:17;5.80;;;2.03;;
21999;SDS011;11164;48.818;2.322;2022-12-31T16:53:45;6.55;;;2.13;;
21999;SDS011;11164;48.818;2.322;2022-12-31T16:56:14;4.80;;;1.83;;
21999;SDS011;11164;48.818;2.322;2022-12-31T16:58:47;6.68;;;2.08;;
21999;SDS011;11164;48.818;2.322;2022-12-31T17:01:17;7.03;;;2.07;;
21999;SDS011;11164;48.818;2.322;2022-12-31T17:03:51;3.70;;;2.03;;
21999;SDS011;11164;48.818;2.322;2022-12-31T17:06:21;4.65;;;2.38;;
21999;SDS011;11164;48.818;2.322;2022-12-31T17:11:32;4.28;;;1.77;;
21999;SDS011;11164;48.818;2.322;2022-12-31T17:16:24;5.33;;;2.17;;
21999;SDS011;11164;48.818;2.322;2022-12-31T17:18:51;5.25;;;2.13;;
21999;SDS011;11164;48.818;2.322;2022-12-31T17:21:16;5.00;;;2.10;;
21999;SDS011;11164;48.818;2.322;2022-12-31T17:23:48;5.68;;;1.98;;
21999;SDS011;11164;48.818;2.322;2022-12-31T17:26:25;4.70;;;2.10;;
21999;SDS011;11164;48.818;2.322;2022-12-31T17:28:54;4.38;;;2.10;;
21999;SDS011;11164;48.818;2.322;2022-12-31T17:31:29;4.20;;;2.15;;
21999;SDS011;11164;48.818;2.322;2022-12-31T17:42:06;5.70;;;1.98;;
21999;SDS011;11164;48.818;2.322;2022-12-31T17:44:34;5.97;;;1.90;;
21999;SDS011;11164;48.818;2.322;2022-12-31T17:47:03;7.00;;;2.42;;
21999;SDS011;11164;48.818;2.322;2022-12-31T17:49:29;7.47;;;1.95;;
21999;SDS011;11164;48.818;2.322;2022-12-31T17:51:55;4.80;;;2.15;;
21999;SDS011;11164;48.818;2.322;2022-12-31T17:54:21;8.52;;;2.25;;
21999;SDS011;11164;48.818;2.322;2022-12-31T17:56:46;5.03;;;1.90;;
21999;SDS011;11164;48.818;2.322;2022-12-31T17:59:22;5.88;;;2.05;;
21999;SDS011;11164;48.818;2.322;2022-12-31T18:01:53;5.97;;;2.65;;
21999;SDS011;11164;48.818;2.322;2022-12-31T18:04:21;5.03;;;1.80;;
21999;SDS011;11164;48.818;2.322;2022-12-31T18:06:47;5.07;;;2.17;;
21999;SDS011;11164;48.818;2.322;2022-12-31T18:09:12;4.25;;;2.08;;
21999;SDS011;11164;48.818;2.322;2022-12-31T18:11:38;5.90;;;2.00;;
21999;SDS011;11164;48.818;2.322;2022-12-31T18:14:04;5.28;;;2.53;;
21999;SDS011;11164;48.818;2.322;2022-12-31T18:16:31;9.10;;;4.35;;
21999;SDS011;11164;48.818;2.322;2022-12-31T18:18:56;11.68;;;4.55;;
21999;SDS011;11164;48.818;2.322;2022-12-31T18:21:28;8.32;;;4.05;;
21999;SDS011;11164;48.818;2.322;2022-12-31T18:23:56;8.75;;;4.28;;
21999;SDS011;11164;48.818;2.322;2022-12-31T18:26:24;7.95;;;2.78;;
21999;SDS011;11164;48.818;2.322;2022-12-31T18:28:49;6.45;;;2.42;;
21999;SDS011;11164;48.818;2.322;2022-12-31T18:31:23;6.90;;;2.20;;
21999;SDS011;11164;48.818;2.322;2022-12-31T18:33:51;7.47;;;2.28;;
21999;SDS011;11164;48.818;2.322;2022-12-31T18:36:19;8.85;;;3.42;;
21999;SDS011;11164;48.818;2.322;2022-12-31T18:38:45;12.38;;;2.67;;
21999;SDS011;11164;48.818;2.322;2022-12-31T18:41:14;7.18;;;3.00;;
21999;SDS011;11164;48.818;2.322;2022-12-31T18:43:44;6.70;;;3.22;;
21999;SDS011;11164;48.818;2.322;2022-12-31T18:46:11;9.73;;;3.13;;
21999;SDS011;11164;48.818;2.322;2022-12-31T18:48:37;9.23;;;4.45;;
21999;SDS011;11164;48.818;2.322;2022-12-31T18:51:05;7.20;;;3.08;;
21999;SDS011;11164;48.818;2.322;2022-12-31T18:53:31;10.02;;;4.55;;
21999;SDS011;11164;48.818;2.322;2022-12-31T18:55:56;13.10;;;5.18;;
21999;SDS011;11164;48.818;2.322;2022-12-31T18:58:22;7.18;;;3.67;;
21999;SDS011;11164;48.818;2.322;2022-12-31T19:00:48;6.72;;;3.17;;
21999;SDS011;11164;48.818;2.322;2022-12-31T19:03:15;7.35;;;2.60;;
21999;SDS011;11164;48.818;2.322;2022-12-31T19:05:42;9.07;;;3.20;;
21999;SDS011;11164;48.818;2.322;2022-12-31T19:08:08;9.32;;;4.93;;
21999;SDS011;11164;48.818;2.322;2022-12-31T19:10:33;5.57;;;2.67;;
21999;SDS011;11164;48.818;2.322;2022-12-31T19:12:59;7.38;;;3.78;;
21999;SDS011;11164;48.818;2.322;2022-12-31T19:17:53;8.10;;;3.22;;
21999;SDS011;11164;48.818;2.322;2022-12-31T19:20:19;7.95;;;3.28;;
21999;SDS011;11164;48.818;2.322;2022-12-31T19:22:44;9.10;;;3.38;;
21999;SDS011;11164;48.818;2.322;2022-12-31T19:27:43;7.60;;;2.80;;
21999;SDS011;11164;48.818;2.322;2022-12-31T19:30:51;8.52;;;3.08;;
21999;SDS011;11164;48.818;2.322;2022-12-31T19:32:58;9.25;;;2.80;;
21999;SDS011;11164;48.818;2.322;2022-12-31T19:35:25;6.05;;;3.22;;
21999;SDS011;11164;48.818;2.322;2022-12-31T19:37:51;7.32;;;2.80;;
21999;SDS011;11164;48.818;2.322;2022-12-31T19:40:19;9.68;;;3.97;;
21999;SDS011;11164;48.818;2.322;2022-12-31T19:42:47;7.07;;;2.88;;
21999;SDS011;11164;48.818;2.322;2022-12-31T19:45:17;6.03;;;2.83;;
21999;SDS011;11164;48.818;2.322;2022-12-31T19:47:46;8.52;;;3.60;;
21999;SDS011;11164;48.818;2.322;2022-12-31T19:50:13;8.95;;;4.25;;
21999;SDS011;11164;48.818;2.322;2022-12-31T19:52:40;5.07;;;2.45;;
21999;SDS011;11164;48.818;2.322;2022-12-31T19:55:06;8.05;;;4.30;;
21999;SDS011;11164;48.818;2.322;2022-12-31T19:57:33;4.55;;;2.42;;
21999;SDS011;11164;48.818;2.322;2022-12-31T19:59:58;7.88;;;3.22;;